sensor_id;sensor_type;location;lat;lon;timestamp;P1;durP1;ratioP1;P2;durP2;ratioP2
18659;SDS011;9459;50.254;19.014;2023-04-08T00:00:57;31.30;;;18.08;;
18659;SDS011;9459;50.254;19.014;2023-04-08T00:03:26;36.42;;;21.60;;
18659;SDS011;9459;50.254;19.014;2023-04-08T00:05:54;32.60;;;20.52;;
18659;SDS011;9459;50.254;19.014;2023-04-08T00:08:23;38.42;;;19.20;;
18659;SDS011;9459;50.254;19.014;2023-04-08T00:10:51;29.65;;;16.65;;
18659;SDS011;9459;50.254;19.014;2023-04-08T00:13:21;35.38;;;19.38;;
18659;SDS011;9459;50.254;19.014;2023-04-08T00:15:49;32.88;;;18.85;;
18659;SDS011;9459;50.254;19.014;2023-04-08T00:18:18;36.58;;;20.50;;
18659;SDS011;9459;50.254;19.014;2023-04-08T00:20:46;35.22;;;19.50;;
18659;SDS011;9459;50.254;19.014;2023-04-08T00:23:15;36.88;;;22.10;;
18659;SDS011;9459;50.254;19.014;2023-04-08T00:25:43;35.17;;;21.67;;
18659;SDS011;9459;50.254;19.014;2023-04-08T00:28:12;39.15;;;22.80;;
18659;SDS011;9459;50.254;19.014;2023-04-08T00:30:42;33.25;;;21.42;;
18659;SDS011;9459;50.254;19.014;2023-04-08T00:33:11;34.30;;;22.75;;
18659;SDS011;9459;50.254;19.014;2023-04-08T00:35:39;33.53;;;21.77;;
18659;SDS011;9459;50.254;19.014;2023-04-08T00:38:08;37.53;;;24.75;;
18659;SDS011;9459;50.254;19.014;2023-04-08T00:40:36;38.17;;;24.23;;
18659;SDS011;9459;50.254;19.014;2023-04-08T00:43:05;35.72;;;22.20;;
18659;SDS011;9459;50.254;19.014;2023-04-08T00:45:33;40.42;;;24.83;;
18659;SDS011;9459;50.254;19.014;2023-04-08T00:48:03;34.00;;;21.83;;
18659;SDS011;9459;50.254;19.014;2023-04-08T00:50:32;32.85;;;20.58;;
18659;SDS011;9459;50.254;19.014;2023-04-08T00:53:00;35.15;;;22.27;;
18659;SDS011;9459;50.254;19.014;2023-04-08T00:55:29;38.35;;;21.83;;
18659;SDS011;9459;50.254;19.014;2023-04-08T00:57:57;23.58;;;14.82;;
18659;SDS011;9459;50.254;19.014;2023-04-08T01:00:26;29.85;;;18.38;;
18659;SDS011;9459;50.254;19.014;2023-04-08T01:02:56;28.77;;;18.98;;
18659;SDS011;9459;50.254;19.014;2023-04-08T01:05:34;24.25;;;16.55;;
18659;SDS011;9459;50.254;19.014;2023-04-08T01:08:07;22.45;;;15.10;;
18659;SDS011;9459;50.254;19.014;2023-04-08T01:10:37;21.85;;;14.93;;
18659;SDS011;9459;50.254;19.014;2023-04-08T01:13:09;28.02;;;18.15;;
18659;SDS011;9459;50.254;19.014;2023-04-08T01:15:39;20.33;;;13.93;;
18659;SDS011;9459;50.254;19.014;2023-04-08T01:18:12;18.73;;;11.07;;
18659;SDS011;9459;50.254;19.014;2023-04-08T01:20:41;19.88;;;13.20;;
18659;SDS011;9459;50.254;19.014;2023-04-08T01:23:12;23.52;;;15.35;;
18659;SDS011;9459;50.254;19.014;2023-04-08T01:25:45;21.80;;;13.68;;
18659;SDS011;9459;50.254;19.014;2023-04-08T01:28:15;21.45;;;14.63;;
18659;SDS011;9459;50.254;19.014;2023-04-08T01:30:44;22.33;;;15.05;;
18659;SDS011;9459;50.254;19.014;2023-04-08T01:33:14;22.55;;;14.75;;
18659;SDS011;9459;50.254;19.014;2023-04-08T01:35:44;24.35;;;15.80;;
18659;SDS011;9459;50.254;19.014;2023-04-08T01:38:14;27.40;;;17.42;;
18659;SDS011;9459;50.254;19.014;2023-04-08T01:40:44;25.55;;;17.20;;
18659;SDS011;9459;50.254;19.014;2023-04-08T01:43:16;25.67;;;17.05;;
18659;SDS011;9459;50.254;19.014;2023-04-08T01:45:45;29.15;;;19.13;;
18659;SDS011;9459;50.254;19.014;2023-04-08T01:48:14;28.92;;;17.98;;
18659;SDS011;9459;50.254;19.014;2023-04-08T01:50:43;30.83;;;19.90;;
18659;SDS011;9459;50.254;19.014;2023-04-08T01:53:12;32.45;;;20.38;;
18659;SDS011;9459;50.254;19.014;2023-04-08T01:55:41;30.25;;;19.65;;
18659;SDS011;9459;50.254;19.014;2023-04-08T01:58:13;29.65;;;19.75;;
18659;SDS011;9459;50.254;19.014;2023-04-08T02:00:45;28.58;;;18.52;;
18659;SDS011;9459;50.254;19.014;2023-04-08T02:03:14;27.08;;;17.90;;
18659;SDS011;9459;50.254;19.014;2023-04-08T02:05:44;27.75;;;17.88;;
18659;SDS011;9459;50.254;19.014;2023-04-08T02:08:13;26.77;;;18.15;;
18659;SDS011;9459;50.254;19.014;2023-04-08T02:10:41;32.17;;;21.23;;
18659;SDS011;9459;50.254;19.014;2023-04-08T02:13:11;27.35;;;18.67;;
18659;SDS011;9459;50.254;19.014;2023-04-08T02:15:41;28.92;;;18.70;;
18659;SDS011;9459;50.254;19.014;2023-04-08T02:18:14;29.58;;;18.13;;
18659;SDS011;9459;50.254;19.014;2023-04-08T02:20:46;28.10;;;19.10;;
18659;SDS011;9459;50.254;19.014;2023-04-08T02:23:21;28.13;;;19.42;;
18659;SDS011;9459;50.254;19.014;2023-04-08T02:25:52;28.23;;;18.92;;
18659;SDS011;9459;50.254;19.014;2023-04-08T02:28:22;31.85;;;22.08;;
18659;SDS011;9459;50.254;19.014;2023-04-08T02:30:53;28.25;;;19.35;;
18659;SDS011;9459;50.254;19.014;2023-04-08T02:33:22;30.05;;;19.65;;
18659;SDS011;9459;50.254;19.014;2023-04-08T02:35:52;29.70;;;19.15;;
18659;SDS011;9459;50.254;19.014;2023-04-08T02:38:22;33.05;;;20.67;;
18659;SDS011;9459;50.254;19.014;2023-04-08T02:40:53;32.67;;;22.00;;
18659;SDS011;9459;50.254;19.014;2023-04-08T02:43:23;32.22;;;21.48;;
18659;SDS011;9459;50.254;19.014;2023-04-08T02:45:55;30.50;;;20.48;;
18659;SDS011;9459;50.254;19.014;2023-04-08T02:48:24;29.85;;;20.17;;
18659;SDS011;9459;50.254;19.014;2023-04-08T02:50:52;29.55;;;20.83;;
18659;SDS011;9459;50.254;19.014;2023-04-08T02:53:20;30.85;;;20.85;;
18659;SDS011;9459;50.254;19.014;2023-04-08T02:55:49;29.13;;;20.30;;
18659;SDS011;9459;50.254;19.014;2023-04-08T02:58:18;29.73;;;20.20;;
18659;SDS011;9459;50.254;19.014;2023-04-08T03:00:49;37.35;;;23.00;;
18659;SDS011;9459;50.254;19.014;2023-04-08T03:03:17;32.38;;;22.65;;
18659;SDS011;9459;50.254;19.014;2023-04-08T03:05:45;32.03;;;21.02;;
18659;SDS011;9459;50.254;19.014;2023-04-08T03:08:14;30.40;;;20.05;;
18659;SDS011;9459;50.254;19.014;2023-04-08T03:10:42;33.53;;;20.80;;
18659;SDS011;9459;50.254;19.014;2023-04-08T03:13:11;32.03;;;21.70;;
18659;SDS011;9459;50.254;19.014;2023-04-08T03:15:39;33.35;;;22.85;;
18659;SDS011;9459;50.254;19.014;2023-04-08T03:18:09;35.17;;;22.95;;
18659;SDS011;9459;50.254;19.014;2023-04-08T03:20:38;34.65;;;23.88;;
18659;SDS011;9459;50.254;19.014;2023-04-08T03:23:06;36.55;;;24.38;;
18659;SDS011;9459;50.254;19.014;2023-04-08T03:25:34;36.35;;;25.45;;
18659;SDS011;9459;50.254;19.014;2023-04-08T03:28:03;37.70;;;24.88;;
18659;SDS011;9459;50.254;19.014;2023-04-08T03:30:32;38.38;;;25.70;;
18659;SDS011;9459;50.254;19.014;2023-04-08T03:33:00;38.05;;;25.55;;
18659;SDS011;9459;50.254;19.014;2023-04-08T03:35:34;36.08;;;24.63;;
18659;SDS011;9459;50.254;19.014;2023-04-08T03:38:03;37.70;;;26.98;;
18659;SDS011;9459;50.254;19.014;2023-04-08T03:40:31;36.58;;;23.42;;
18659;SDS011;9459;50.254;19.014;2023-04-08T03:43:00;39.55;;;26.45;;
18659;SDS011;9459;50.254;19.014;2023-04-08T03:45:28;39.88;;;24.75;;
18659;SDS011;9459;50.254;19.014;2023-04-08T03:47:57;36.20;;;25.00;;
18659;SDS011;9459;50.254;19.014;2023-04-08T03:50:25;40.70;;;25.75;;
18659;SDS011;9459;50.254;19.014;2023-04-08T03:52:55;37.55;;;24.70;;
18659;SDS011;9459;50.254;19.014;2023-04-08T03:55:23;35.28;;;23.42;;
18659;SDS011;9459;50.254;19.014;2023-04-08T03:57:52;33.20;;;21.33;;
18659;SDS011;9459;50.254;19.014;2023-04-08T04:00:20;32.25;;;21.38;;
18659;SDS011;9459;50.254;19.014;2023-04-08T04:02:49;35.22;;;22.95;;
18659;SDS011;9459;50.254;19.014;2023-04-08T04:05:17;28.10;;;18.13;;
18659;SDS011;9459;50.254;19.014;2023-04-08T04:07:46;33.03;;;20.77;;
18659;SDS011;9459;50.254;19.014;2023-04-08T04:10:16;37.08;;;22.30;;
18659;SDS011;9459;50.254;19.014;2023-04-08T04:12:44;41.72;;;23.88;;
18659;SDS011;9459;50.254;19.014;2023-04-08T04:15:13;35.92;;;22.48;;
18659;SDS011;9459;50.254;19.014;2023-04-08T04:17:42;40.13;;;23.17;;
18659;SDS011;9459;50.254;19.014;2023-04-08T04:20:10;27.52;;;17.95;;
18659;SDS011;9459;50.254;19.014;2023-04-08T04:22:39;30.33;;;19.23;;
18659;SDS011;9459;50.254;19.014;2023-04-08T04:25:08;28.45;;;19.02;;
18659;SDS011;9459;50.254;19.014;2023-04-08T04:27:38;29.98;;;19.50;;
18659;SDS011;9459;50.254;19.014;2023-04-08T04:30:07;47.40;;;24.67;;
18659;SDS011;9459;50.254;19.014;2023-04-08T04:32:36;30.40;;;20.50;;
18659;SDS011;9459;50.254;19.014;2023-04-08T04:35:05;32.10;;;19.63;;
18659;SDS011;9459;50.254;19.014;2023-04-08T04:37:33;33.17;;;22.15;;
18659;SDS011;9459;50.254;19.014;2023-04-08T04:40:02;33.50;;;21.83;;
18659;SDS011;9459;50.254;19.014;2023-04-08T04:42:30;32.40;;;21.13;;
18659;SDS011;9459;50.254;19.014;2023-04-08T04:45:01;27.92;;;18.48;;
18659;SDS011;9459;50.254;19.014;2023-04-08T04:47:30;31.73;;;19.92;;
18659;SDS011;9459;50.254;19.014;2023-04-08T04:49:58;27.40;;;19.27;;
18659;SDS011;9459;50.254;19.014;2023-04-08T04:52:27;29.08;;;18.15;;
18659;SDS011;9459;50.254;19.014;2023-04-08T04:54:56;30.30;;;18.02;;
18659;SDS011;9459;50.254;19.014;2023-04-08T04:57:24;31.90;;;19.60;;
18659;SDS011;9459;50.254;19.014;2023-04-08T04:59:53;27.55;;;17.75;;
18659;SDS011;9459;50.254;19.014;2023-04-08T05:02:22;27.25;;;18.42;;
18659;SDS011;9459;50.254;19.014;2023-04-08T05:04:51;31.42;;;19.92;;
18659;SDS011;9459;50.254;19.014;2023-04-08T05:07:21;31.42;;;18.30;;
18659;SDS011;9459;50.254;19.014;2023-04-08T05:09:50;26.13;;;16.52;;
18659;SDS011;9459;50.254;19.014;2023-04-08T05:12:18;25.52;;;16.50;;
18659;SDS011;9459;50.254;19.014;2023-04-08T05:14:47;27.80;;;17.77;;
18659;SDS011;9459;50.254;19.014;2023-04-08T05:17:16;31.20;;;19.15;;
18659;SDS011;9459;50.254;19.014;2023-04-08T05:19:45;28.38;;;18.23;;
18659;SDS011;9459;50.254;19.014;2023-04-08T05:22:14;25.55;;;16.08;;
18659;SDS011;9459;50.254;19.014;2023-04-08T05:24:42;26.65;;;17.55;;
18659;SDS011;9459;50.254;19.014;2023-04-08T05:27:11;26.00;;;16.17;;
18659;SDS011;9459;50.254;19.014;2023-04-08T05:29:39;29.92;;;18.55;;
18659;SDS011;9459;50.254;19.014;2023-04-08T05:32:08;26.58;;;17.45;;
18659;SDS011;9459;50.254;19.014;2023-04-08T05:34:36;29.67;;;17.85;;
18659;SDS011;9459;50.254;19.014;2023-04-08T05:37:06;26.23;;;17.48;;
18659;SDS011;9459;50.254;19.014;2023-04-08T05:39:35;30.42;;;18.13;;
18659;SDS011;9459;50.254;19.014;2023-04-08T05:42:03;26.50;;;16.02;;
18659;SDS011;9459;50.254;19.014;2023-04-08T05:44:31;23.88;;;14.82;;
18659;SDS011;9459;50.254;19.014;2023-04-08T05:47:00;23.58;;;15.57;;
18659;SDS011;9459;50.254;19.014;2023-04-08T05:49:28;24.48;;;16.80;;
18659;SDS011;9459;50.254;19.014;2023-04-08T05:51:57;23.90;;;16.27;;
18659;SDS011;9459;50.254;19.014;2023-04-08T05:54:27;23.90;;;15.85;;
18659;SDS011;9459;50.254;19.014;2023-04-08T05:56:55;27.30;;;18.02;;
18659;SDS011;9459;50.254;19.014;2023-04-08T05:59:23;24.15;;;16.15;;
18659;SDS011;9459;50.254;19.014;2023-04-08T06:01:52;27.75;;;17.85;;
18659;SDS011;9459;50.254;19.014;2023-04-08T06:04:22;23.60;;;16.23;;
18659;SDS011;9459;50.254;19.014;2023-04-08T06:06:51;26.05;;;15.93;;
18659;SDS011;9459;50.254;19.014;2023-04-08T06:09:20;22.58;;;15.65;;
18659;SDS011;9459;50.254;19.014;2023-04-08T06:11:49;23.15;;;15.68;;
18659;SDS011;9459;50.254;19.014;2023-04-08T06:14:18;22.67;;;14.68;;
18659;SDS011;9459;50.254;19.014;2023-04-08T06:16:47;24.00;;;16.33;;
18659;SDS011;9459;50.254;19.014;2023-04-08T06:19:15;19.77;;;14.40;;
18659;SDS011;9459;50.254;19.014;2023-04-08T06:21:44;24.17;;;15.45;;
18659;SDS011;9459;50.254;19.014;2023-04-08T06:24:12;20.88;;;15.48;;
18659;SDS011;9459;50.254;19.014;2023-04-08T06:26:41;21.35;;;14.10;;
18659;SDS011;9459;50.254;19.014;2023-04-08T06:29:11;20.08;;;14.57;;
18659;SDS011;9459;50.254;19.014;2023-04-08T06:31:40;21.98;;;15.00;;
18659;SDS011;9459;50.254;19.014;2023-04-08T06:34:08;21.73;;;14.73;;
18659;SDS011;9459;50.254;19.014;2023-04-08T06:36:37;22.23;;;15.32;;
18659;SDS011;9459;50.254;19.014;2023-04-08T06:39:05;20.27;;;13.98;;
18659;SDS011;9459;50.254;19.014;2023-04-08T06:41:34;20.60;;;14.48;;
18659;SDS011;9459;50.254;19.014;2023-04-08T06:44:02;21.80;;;16.40;;
18659;SDS011;9459;50.254;19.014;2023-04-08T06:46:32;22.75;;;16.17;;
18659;SDS011;9459;50.254;19.014;2023-04-08T06:49:00;25.75;;;17.05;;
18659;SDS011;9459;50.254;19.014;2023-04-08T06:51:30;21.92;;;15.68;;
18659;SDS011;9459;50.254;19.014;2023-04-08T06:53:58;20.23;;;14.27;;
18659;SDS011;9459;50.254;19.014;2023-04-08T06:56:27;15.55;;;11.48;;
18659;SDS011;9459;50.254;19.014;2023-04-08T06:58:55;17.00;;;13.02;;
18659;SDS011;9459;50.254;19.014;2023-04-08T07:01:24;15.98;;;11.68;;
18659;SDS011;9459;50.254;19.014;2023-04-08T07:03:54;15.45;;;12.55;;
18659;SDS011;9459;50.254;19.014;2023-04-08T07:06:22;17.77;;;13.85;;
18659;SDS011;9459;50.254;19.014;2023-04-08T07:08:53;15.30;;;12.90;;
18659;SDS011;9459;50.254;19.014;2023-04-08T07:11:22;15.98;;;12.85;;
18659;SDS011;9459;50.254;19.014;2023-04-08T07:13:50;15.57;;;11.05;;
18659;SDS011;9459;50.254;19.014;2023-04-08T07:16:19;20.92;;;14.52;;
18659;SDS011;9459;50.254;19.014;2023-04-08T07:18:47;20.88;;;13.63;;
18659;SDS011;9459;50.254;19.014;2023-04-08T07:21:17;13.70;;;11.27;;
18659;SDS011;9459;50.254;19.014;2023-04-08T07:23:46;19.58;;;12.85;;
18659;SDS011;9459;50.254;19.014;2023-04-08T07:26:14;14.77;;;11.15;;
18659;SDS011;9459;50.254;19.014;2023-04-08T07:28:43;14.50;;;10.88;;
18659;SDS011;9459;50.254;19.014;2023-04-08T07:31:14;15.32;;;11.00;;
18659;SDS011;9459;50.254;19.014;2023-04-08T07:33:43;16.92;;;12.30;;
18659;SDS011;9459;50.254;19.014;2023-04-08T07:36:13;15.63;;;11.60;;
18659;SDS011;9459;50.254;19.014;2023-04-08T07:38:45;14.25;;;10.90;;
18659;SDS011;9459;50.254;19.014;2023-04-08T07:41:14;15.80;;;12.33;;
18659;SDS011;9459;50.254;19.014;2023-04-08T07:43:42;18.08;;;13.07;;
18659;SDS011;9459;50.254;19.014;2023-04-08T07:46:12;17.75;;;13.95;;
18659;SDS011;9459;50.254;19.014;2023-04-08T07:48:40;16.27;;;12.20;;
18659;SDS011;9459;50.254;19.014;2023-04-08T07:51:09;16.27;;;11.70;;
18659;SDS011;9459;50.254;19.014;2023-04-08T07:53:37;12.88;;;10.82;;
18659;SDS011;9459;50.254;19.014;2023-04-08T07:56:11;16.10;;;12.15;;
18659;SDS011;9459;50.254;19.014;2023-04-08T07:58:40;12.93;;;10.38;;
18659;SDS011;9459;50.254;19.014;2023-04-08T08:01:16;18.13;;;12.07;;
18659;SDS011;9459;50.254;19.014;2023-04-08T08:03:45;13.48;;;10.18;;
18659;SDS011;9459;50.254;19.014;2023-04-08T08:06:15;13.63;;;11.30;;
18659;SDS011;9459;50.254;19.014;2023-04-08T08:08:43;16.70;;;12.20;;
18659;SDS011;9459;50.254;19.014;2023-04-08T08:11:13;15.00;;;11.88;;
18659;SDS011;9459;50.254;19.014;2023-04-08T08:13:41;11.25;;;10.05;;
18659;SDS011;9459;50.254;19.014;2023-04-08T08:16:10;10.93;;;9.30;;
18659;SDS011;9459;50.254;19.014;2023-04-08T08:18:38;12.38;;;9.90;;
18659;SDS011;9459;50.254;19.014;2023-04-08T08:21:07;11.02;;;9.73;;
18659;SDS011;9459;50.254;19.014;2023-04-08T08:23:36;13.48;;;12.00;;
18659;SDS011;9459;50.254;19.014;2023-04-08T08:26:05;11.40;;;9.32;;
18659;SDS011;9459;50.254;19.014;2023-04-08T08:28:37;9.48;;;8.48;;
18659;SDS011;9459;50.254;19.014;2023-04-08T08:31:06;11.77;;;10.07;;
18659;SDS011;9459;50.254;19.014;2023-04-08T08:33:34;12.82;;;11.10;;
18659;SDS011;9459;50.254;19.014;2023-04-08T08:36:03;15.68;;;12.40;;
18659;SDS011;9459;50.254;19.014;2023-04-08T08:38:32;13.88;;;11.65;;
18659;SDS011;9459;50.254;19.014;2023-04-08T08:41:01;11.52;;;10.32;;
18659;SDS011;9459;50.254;19.014;2023-04-08T08:43:30;11.65;;;9.48;;
18659;SDS011;9459;50.254;19.014;2023-04-08T08:46:01;11.68;;;10.20;;
18659;SDS011;9459;50.254;19.014;2023-04-08T08:48:30;12.57;;;11.27;;
18659;SDS011;9459;50.254;19.014;2023-04-08T08:51:00;11.13;;;9.93;;
18659;SDS011;9459;50.254;19.014;2023-04-08T08:53:28;13.77;;;11.50;;
18659;SDS011;9459;50.254;19.014;2023-04-08T08:56:01;14.35;;;11.98;;
18659;SDS011;9459;50.254;19.014;2023-04-08T08:58:44;14.90;;;9.98;;
18659;SDS011;9459;50.254;19.014;2023-04-08T09:01:34;11.60;;;10.27;;
18659;SDS011;9459;50.254;19.014;2023-04-08T09:04:08;14.27;;;10.95;;
18659;SDS011;9459;50.254;19.014;2023-04-08T09:06:38;11.63;;;9.88;;
18659;SDS011;9459;50.254;19.014;2023-04-08T09:09:07;11.85;;;10.43;;
18659;SDS011;9459;50.254;19.014;2023-04-08T09:11:39;13.75;;;10.75;;
18659;SDS011;9459;50.254;19.014;2023-04-08T09:14:18;12.45;;;10.10;;
18659;SDS011;9459;50.254;19.014;2023-04-08T09:16:49;12.65;;;9.38;;
18659;SDS011;9459;50.254;19.014;2023-04-08T09:19:17;12.95;;;10.30;;
18659;SDS011;9459;50.254;19.014;2023-04-08T09:21:52;14.82;;;11.00;;
18659;SDS011;9459;50.254;19.014;2023-04-08T09:24:32;12.57;;;10.18;;
18659;SDS011;9459;50.254;19.014;2023-04-08T09:27:01;16.17;;;12.85;;
18659;SDS011;9459;50.254;19.014;2023-04-08T09:29:29;11.23;;;9.98;;
18659;SDS011;9459;50.254;19.014;2023-04-08T09:32:04;9.88;;;8.48;;
18659;SDS011;9459;50.254;19.014;2023-04-08T09:34:33;13.57;;;10.45;;
18659;SDS011;9459;50.254;19.014;2023-04-08T09:37:02;11.10;;;9.48;;
18659;SDS011;9459;50.254;19.014;2023-04-08T09:39:30;11.25;;;8.60;;
18659;SDS011;9459;50.254;19.014;2023-04-08T09:41:59;10.10;;;9.10;;
18659;SDS011;9459;50.254;19.014;2023-04-08T09:44:29;10.13;;;9.02;;
18659;SDS011;9459;50.254;19.014;2023-04-08T09:47:00;32.85;;;19.95;;
18659;SDS011;9459;50.254;19.014;2023-04-08T09:49:36;10.25;;;8.48;;
18659;SDS011;9459;50.254;19.014;2023-04-08T09:52:06;9.30;;;8.40;;
18659;SDS011;9459;50.254;19.014;2023-04-08T09:54:37;40.40;;;32.47;;
18659;SDS011;9459;50.254;19.014;2023-04-08T09:57:13;16.65;;;14.18;;
18659;SDS011;9459;50.254;19.014;2023-04-08T09:59:45;8.90;;;7.45;;
18659;SDS011;9459;50.254;19.014;2023-04-08T10:02:18;13.82;;;11.23;;
18659;SDS011;9459;50.254;19.014;2023-04-08T10:04:53;14.52;;;12.30;;
18659;SDS011;9459;50.254;19.014;2023-04-08T10:07:22;14.27;;;11.32;;
18659;SDS011;9459;50.254;19.014;2023-04-08T10:09:50;9.70;;;8.63;;
18659;SDS011;9459;50.254;19.014;2023-04-08T10:12:19;11.20;;;9.30;;
18659;SDS011;9459;50.254;19.014;2023-04-08T10:17:50;12.68;;;10.18;;
18659;SDS011;9459;50.254;19.014;2023-04-08T10:23:12;15.07;;;10.65;;
18659;SDS011;9459;50.254;19.014;2023-04-08T10:25:41;10.38;;;8.48;;
18659;SDS011;9459;50.254;19.014;2023-04-08T10:28:23;10.60;;;8.85;;
18659;SDS011;9459;50.254;19.014;2023-04-08T10:30:53;10.45;;;7.80;;
18659;SDS011;9459;50.254;19.014;2023-04-08T10:33:23;12.73;;;9.90;;
18659;SDS011;9459;50.254;19.014;2023-04-08T10:36:08;11.98;;;9.63;;
18659;SDS011;9459;50.254;19.014;2023-04-08T10:38:38;11.35;;;8.63;;
18659;SDS011;9459;50.254;19.014;2023-04-08T10:41:08;11.68;;;7.80;;
18659;SDS011;9459;50.254;19.014;2023-04-08T10:43:37;12.75;;;9.07;;
18659;SDS011;9459;50.254;19.014;2023-04-08T10:46:06;12.63;;;9.30;;
18659;SDS011;9459;50.254;19.014;2023-04-08T10:48:37;11.50;;;9.63;;
18659;SDS011;9459;50.254;19.014;2023-04-08T10:51:06;7.72;;;6.93;;
18659;SDS011;9459;50.254;19.014;2023-04-08T10:53:36;7.50;;;6.22;;
18659;SDS011;9459;50.254;19.014;2023-04-08T10:56:06;7.65;;;6.43;;
18659;SDS011;9459;50.254;19.014;2023-04-08T10:58:38;9.13;;;7.13;;
18659;SDS011;9459;50.254;19.014;2023-04-08T11:01:14;7.68;;;6.43;;
18659;SDS011;9459;50.254;19.014;2023-04-08T11:03:43;8.32;;;7.47;;
18659;SDS011;9459;50.254;19.014;2023-04-08T11:06:13;8.23;;;7.40;;
18659;SDS011;9459;50.254;19.014;2023-04-08T11:08:42;12.38;;;9.48;;
18659;SDS011;9459;50.254;19.014;2023-04-08T11:11:10;9.40;;;8.02;;
18659;SDS011;9459;50.254;19.014;2023-04-08T11:13:40;14.93;;;12.60;;
18659;SDS011;9459;50.254;19.014;2023-04-08T11:16:18;15.00;;;13.05;;
18659;SDS011;9459;50.254;19.014;2023-04-08T11:18:47;15.52;;;12.10;;
18659;SDS011;9459;50.254;19.014;2023-04-08T11:21:17;14.90;;;12.38;;
18659;SDS011;9459;50.254;19.014;2023-04-08T11:23:48;15.23;;;11.73;;
18659;SDS011;9459;50.254;19.014;2023-04-08T11:28:47;18.70;;;14.43;;
18659;SDS011;9459;50.254;19.014;2023-04-08T11:31:17;20.63;;;15.15;;
18659;SDS011;9459;50.254;19.014;2023-04-08T11:33:51;17.08;;;13.60;;
18659;SDS011;9459;50.254;19.014;2023-04-08T11:36:21;16.98;;;12.50;;
18659;SDS011;9459;50.254;19.014;2023-04-08T11:38:52;14.82;;;11.20;;
18659;SDS011;9459;50.254;19.014;2023-04-08T11:41:20;13.25;;;10.25;;
18659;SDS011;9459;50.254;19.014;2023-04-08T11:43:50;13.32;;;10.98;;
18659;SDS011;9459;50.254;19.014;2023-04-08T11:46:22;17.33;;;14.15;;
18659;SDS011;9459;50.254;19.014;2023-04-08T11:49:00;13.90;;;11.52;;
18659;SDS011;9459;50.254;19.014;2023-04-08T11:51:32;16.27;;;12.43;;
18659;SDS011;9459;50.254;19.014;2023-04-08T11:54:03;18.00;;;14.07;;
18659;SDS011;9459;50.254;19.014;2023-04-08T11:56:42;16.20;;;12.30;;
18659;SDS011;9459;50.254;19.014;2023-04-08T11:59:12;20.63;;;13.47;;
18659;SDS011;9459;50.254;19.014;2023-04-08T12:01:41;17.15;;;11.00;;
18659;SDS011;9459;50.254;19.014;2023-04-08T12:04:09;16.98;;;12.65;;
18659;SDS011;9459;50.254;19.014;2023-04-08T12:06:39;19.88;;;15.13;;
18659;SDS011;9459;50.254;19.014;2023-04-08T12:09:09;19.65;;;13.73;;
18659;SDS011;9459;50.254;19.014;2023-04-08T12:11:38;15.48;;;11.48;;
18659;SDS011;9459;50.254;19.014;2023-04-08T12:14:07;15.98;;;11.88;;
18659;SDS011;9459;50.254;19.014;2023-04-08T12:16:35;20.77;;;15.05;;
18659;SDS011;9459;50.254;19.014;2023-04-08T12:19:04;21.83;;;14.68;;
18659;SDS011;9459;50.254;19.014;2023-04-08T12:21:32;26.15;;;18.20;;
18659;SDS011;9459;50.254;19.014;2023-04-08T12:24:02;19.77;;;14.52;;
18659;SDS011;9459;50.254;19.014;2023-04-08T12:26:32;25.65;;;19.17;;
18659;SDS011;9459;50.254;19.014;2023-04-08T12:29:00;17.90;;;12.75;;
18659;SDS011;9459;50.254;19.014;2023-04-08T12:31:28;15.43;;;11.45;;
18659;SDS011;9459;50.254;19.014;2023-04-08T12:33:57;18.55;;;14.00;;
18659;SDS011;9459;50.254;19.014;2023-04-08T12:36:26;16.17;;;13.35;;
18659;SDS011;9459;50.254;19.014;2023-04-08T12:38:54;18.00;;;13.48;;
18659;SDS011;9459;50.254;19.014;2023-04-08T12:41:24;17.75;;;13.88;;
18659;SDS011;9459;50.254;19.014;2023-04-08T12:43:53;17.70;;;12.73;;
18659;SDS011;9459;50.254;19.014;2023-04-08T12:46:21;16.15;;;11.65;;
18659;SDS011;9459;50.254;19.014;2023-04-08T12:48:50;24.15;;;15.07;;
18659;SDS011;9459;50.254;19.014;2023-04-08T12:51:29;18.05;;;12.95;;
18659;SDS011;9459;50.254;19.014;2023-04-08T12:53:58;22.30;;;14.02;;
18659;SDS011;9459;50.254;19.014;2023-04-08T12:56:28;27.10;;;16.92;;
18659;SDS011;9459;50.254;19.014;2023-04-08T12:58:57;26.73;;;16.63;;
18659;SDS011;9459;50.254;19.014;2023-04-08T13:01:26;28.70;;;18.30;;
18659;SDS011;9459;50.254;19.014;2023-04-08T13:03:57;18.00;;;13.57;;
18659;SDS011;9459;50.254;19.014;2023-04-08T13:06:25;16.02;;;12.30;;
18659;SDS011;9459;50.254;19.014;2023-04-08T13:08:54;31.00;;;17.40;;
18659;SDS011;9459;50.254;19.014;2023-04-08T13:11:23;20.60;;;13.18;;
18659;SDS011;9459;50.254;19.014;2023-04-08T13:13:53;24.35;;;15.35;;
18659;SDS011;9459;50.254;19.014;2023-04-08T13:16:21;21.10;;;14.85;;
18659;SDS011;9459;50.254;19.014;2023-04-08T13:18:50;25.60;;;15.85;;
18659;SDS011;9459;50.254;19.014;2023-04-08T13:21:19;22.13;;;14.68;;
18659;SDS011;9459;50.254;19.014;2023-04-08T13:23:47;30.98;;;19.67;;
18659;SDS011;9459;50.254;19.014;2023-04-08T13:26:15;23.63;;;15.63;;
18659;SDS011;9459;50.254;19.014;2023-04-08T13:28:44;24.00;;;15.88;;
18659;SDS011;9459;50.254;19.014;2023-04-08T13:31:24;19.73;;;14.75;;
18659;SDS011;9459;50.254;19.014;2023-04-08T13:33:53;21.92;;;14.75;;
18659;SDS011;9459;50.254;19.014;2023-04-08T13:36:23;27.27;;;19.30;;
18659;SDS011;9459;50.254;19.014;2023-04-08T13:38:55;49.92;;;30.15;;
18659;SDS011;9459;50.254;19.014;2023-04-08T13:41:23;40.78;;;24.45;;
18659;SDS011;9459;50.254;19.014;2023-04-08T13:43:54;31.40;;;20.45;;
18659;SDS011;9459;50.254;19.014;2023-04-08T13:46:24;31.38;;;20.00;;
18659;SDS011;9459;50.254;19.014;2023-04-08T13:48:54;24.30;;;17.30;;
18659;SDS011;9459;50.254;19.014;2023-04-08T13:51:23;20.02;;;14.18;;
18659;SDS011;9459;50.254;19.014;2023-04-08T13:53:54;22.40;;;15.50;;
18659;SDS011;9459;50.254;19.014;2023-04-08T13:56:22;19.17;;;13.82;;
18659;SDS011;9459;50.254;19.014;2023-04-08T13:58:51;18.35;;;13.40;;
18659;SDS011;9459;50.254;19.014;2023-04-08T14:01:24;20.02;;;14.63;;
18659;SDS011;9459;50.254;19.014;2023-04-08T14:03:53;16.05;;;12.82;;
18659;SDS011;9459;50.254;19.014;2023-04-08T14:06:22;18.58;;;13.32;;
18659;SDS011;9459;50.254;19.014;2023-04-08T14:08:50;21.33;;;15.35;;
18659;SDS011;9459;50.254;19.014;2023-04-08T14:11:19;21.40;;;16.20;;
18659;SDS011;9459;50.254;19.014;2023-04-08T14:13:48;20.38;;;14.57;;
18659;SDS011;9459;50.254;19.014;2023-04-08T14:16:16;28.13;;;19.00;;
18659;SDS011;9459;50.254;19.014;2023-04-08T14:18:47;20.17;;;14.77;;
18659;SDS011;9459;50.254;19.014;2023-04-08T14:21:15;21.27;;;15.65;;
18659;SDS011;9459;50.254;19.014;2023-04-08T14:23:44;22.52;;;16.67;;
18659;SDS011;9459;50.254;19.014;2023-04-08T14:26:14;25.50;;;16.92;;
18659;SDS011;9459;50.254;19.014;2023-04-08T14:28:42;21.95;;;17.20;;
18659;SDS011;9459;50.254;19.014;2023-04-08T14:31:10;28.45;;;18.27;;
18659;SDS011;9459;50.254;19.014;2023-04-08T14:33:39;33.92;;;22.25;;
18659;SDS011;9459;50.254;19.014;2023-04-08T14:36:09;29.20;;;19.75;;
18659;SDS011;9459;50.254;19.014;2023-04-08T14:38:40;28.35;;;20.17;;
18659;SDS011;9459;50.254;19.014;2023-04-08T14:41:08;26.83;;;19.27;;
18659;SDS011;9459;50.254;19.014;2023-04-08T14:43:36;27.42;;;20.45;;
18659;SDS011;9459;50.254;19.014;2023-04-08T14:46:05;24.58;;;17.77;;